logo



Minimumtemperatur heute 8.8     Maximumtemperatur heute 11.2
Datum Zeit
MEZ
Lufttemperatur
C
Windrichtung
Grad
Wind Mittel
Km/h
Wind Min
Km/h
Wind Max
Km/h
rel. Feuchte
%
2017-08-21 07:10:00 11.0 128 1.6 4.2 7.5 90
2017-08-21 07:05:00 10.8 122 1.5 4.0 7.3 91
2017-08-21 07:00:00 10.7 125 0.9 2.1 5.0 91
2017-08-21 06:55:00 10.6 111 0.3 0.0 2.9 90
2017-08-21 06:50:00 10.5 55 0.5 0.0 3.3 91
2017-08-21 06:45:00 10.4 31 0.5 0.3 4.1 91
2017-08-21 06:40:00 10.4 49 0.1 0.0 2.3 92
2017-08-21 06:35:00 10.3 94 0.2 0.0 2.2 92
2017-08-21 06:30:00 10.2 91 0.1 0.0 1.3 92
2017-08-21 06:25:00 10.1 106 0.5 0.2 3.8 92
2017-08-21 06:20:00 10.1 96 0.8 0.8 5.3 92
2017-08-21 06:15:00 10.1 108 0.6 0.6 4.0 91
2017-08-21 06:10:00 10.0 102 0.7 0.6 4.3 91
2017-08-21 06:05:00 9.9 65 1.1 2.2 6.5 92
2017-08-21 06:00:00 9.9 116 0.5 0.4 3.9 92
2017-08-21 05:55:00 9.9 115 0.9 1.7 5.0 91
2017-08-21 05:50:00 9.9 131 0.1 0.0 1.8 91
2017-08-21 05:45:00 9.9 103 0.3 0.0 1.7 91
2017-08-21 05:40:00 9.8 45 0.3 0.1 2.2 91
2017-08-21 05:35:00 9.8 99 0.2 0.0 2.1 91
2017-08-21 05:30:00 9.8 114 0.3 0.4 2.6 91
2017-08-21 05:25:00 9.8 30 0.3 0.2 3.2 91
2017-08-21 05:20:00 9.7 94 0.1 0.0 1.7 91
2017-08-21 05:15:00 9.7 100 0.3 0.0 2.5 91
2017-08-21 05:10:00 9.6 72 0.9 0.7 5.6 92
2017-08-21 05:05:00 9.5 93 0.7 0.7 4.8 92
2017-08-21 05:00:00 9.4 70 0.7 0.8 4.8 92
2017-08-21 04:55:00 9.3 98 1.1 2.4 4.8 92
2017-08-21 04:50:00 9.3 103 0.6 0.6 4.0 92
2017-08-21 04:45:00 9.2 107 1.3 2.8 7.7 92
2017-08-21 04:40:00 9.2 117 1.0 2.5 5.2 92
2017-08-21 04:35:00 9.2 122 0.9 1.6 4.4 92
2017-08-21 04:30:00 9.2 102 0.7 1.0 5.2 92
2017-08-21 04:25:00 9.2 104 0.7 1.2 3.8 92
2017-08-21 04:20:00 9.2 106 0.8 1.1 4.4 92
2017-08-21 04:15:00 9.2 118 0.9 1.8 4.6 92
2017-08-21 04:10:00 9.1 128 0.7 0.2 4.6 93
2017-08-21 04:05:00 9.0 114 0.2 0.0 2.4 93
2017-08-21 04:00:00 8.9 102 0.3 0.1 3.8 93
2017-08-21 03:55:00 8.9 100 1.0 1.8 6.1 93
2017-08-21 03:50:00 8.9 118 1.1 2.4 6.0 93
2017-08-21 03:45:00 8.9 118 1.0 2.5 5.1 93
2017-08-21 03:40:00 8.8 139 0.5 1.3 2.7 93
2017-08-21 03:35:00 8.9 126 0.5 0.4 2.3 93
2017-08-21 03:30:00 8.9 108 0.5 0.2 2.7 93
2017-08-21 03:25:00 8.8 115 0.5 1.3 2.2 93
2017-08-21 03:20:00 9.0 126 0.6 1.7 2.9 93
2017-08-21 03:15:00 8.8 139 0.4 0.8 3.1 93
2017-08-21 03:10:00 8.8 126 0.7 1.6 3.0 93
2017-08-21 03:05:00 8.9 123 0.7 1.7 3.4 93
2017-08-21 03:00:00 8.9 106 1.0 2.6 4.5 93
2017-08-21 02:55:00 8.8 137 0.9 2.0 3.6 93
2017-08-21 02:50:00 8.9 109 0.6 1.5 2.7 93
2017-08-21 02:45:00 9.1 116 0.8 2.3 3.3 93
2017-08-21 02:40:00 9.2 123 0.5 1.0 2.7 93
2017-08-21 02:35:00 9.3 117 0.2 0.0 1.8 93
2017-08-21 02:30:00 9.2 99 0.0 0.0 0.0 92
2017-08-21 02:25:00 9.3 100 0.2 0.0 2.5 92
2017-08-21 02:20:00 9.3 123 0.6 1.2 2.8 93
2017-08-21 02:15:00 9.1 127 0.6 1.2 2.8 92
2017-08-21 02:10:00 9.4 129 0.5 1.1 2.4 92
2017-08-21 02:05:00 9.5 119 0.2 0.0 2.6 92
2017-08-21 02:00:00 9.5 67 0.1 0.0 1.3 92
2017-08-21 01:55:00 9.6 103 0.1 0.0 1.7 92
2017-08-21 01:50:00 9.5 102 0.1 0.0 1.3 92
2017-08-21 01:45:00 9.5 87 0.3 0.4 2.1 92
2017-08-21 01:40:00 9.5 105 0.5 0.8 3.2 92
2017-08-21 01:35:00 9.6 109 0.6 0.5 5.7 92
2017-08-21 01:30:00 9.7 105 1.0 1.8 6.3 91
2017-08-21 01:25:00 9.9 126 0.3 0.8 1.9 91
2017-08-21 01:20:00 10.1 106 0.5 0.4 3.0 91
2017-08-21 01:15:00 10.2 122 0.6 1.4 3.1 91
2017-08-21 01:10:00 10.1 114 0.2 0.0 2.9 92
2017-08-21 01:05:00 10.1 111 0.4 0.8 1.7 91
2017-08-21 01:00:00 10.3 127 0.0 0.0 1.3 91
2017-08-21 00:55:00 10.3 123 0.4 0.2 2.6 90
2017-08-21 00:50:00 10.7 109 0.8 1.7 3.5 90
2017-08-21 00:45:00 10.8 108 0.5 0.3 2.7 89
2017-08-21 00:40:00 10.7 104 0.6 0.4 2.8 89
2017-08-21 00:35:00 10.5 139 0.6 1.9 2.7 90
2017-08-21 00:30:00 10.5 130 0.5 0.6 3.0 90
2017-08-21 00:25:00 10.5 139 0.3 0.5 1.5 90
2017-08-21 00:20:00 10.4 133 0.4 1.3 1.9 90
2017-08-21 00:15:00 10.6 120 0.3 0.8 1.7 89
2017-08-21 00:10:00 10.8 137 0.6 1.1 2.7 89
2017-08-21 00:05:00 11.2 116 0.4 0.5 2.1 87
2017-08-21 00:00:00 11.1 94 0.4 0.8 1.7 88
www.zamg.ac.at

klagenfurt@zamg.ac.at